sensor_id;sensor_type;location;lat;lon;timestamp;temperature;humidity
15394;DHT22;7795;47.986;11.868;2024-01-30T00:02:08;2.40;72.40
15394;DHT22;7795;47.986;11.868;2024-01-30T00:04:33;2.40;72.50
15394;DHT22;7795;47.986;11.868;2024-01-30T00:06:59;2.40;73.20
15394;DHT22;7795;47.986;11.868;2024-01-30T00:09:25;2.30;72.40
15394;DHT22;7795;47.986;11.868;2024-01-30T00:11:50;2.30;72.30
15394;DHT22;7795;47.986;11.868;2024-01-30T00:14:16;2.30;72.40
15394;DHT22;7795;47.986;11.868;2024-01-30T00:16:42;2.30;72.40
15394;DHT22;7795;47.986;11.868;2024-01-30T00:19:09;2.20;72.30
15394;DHT22;7795;47.986;11.868;2024-01-30T00:21:35;2.20;72.50
15394;DHT22;7795;47.986;11.868;2024-01-30T00:24:00;2.20;72.60
15394;DHT22;7795;47.986;11.868;2024-01-30T00:26:26;2.20;72.70
15394;DHT22;7795;47.986;11.868;2024-01-30T00:28:52;2.20;72.80
15394;DHT22;7795;47.986;11.868;2024-01-30T00:31:18;2.20;72.80
15394;DHT22;7795;47.986;11.868;2024-01-30T00:33:43;2.20;72.80
15394;DHT22;7795;47.986;11.868;2024-01-30T00:36:10;2.20;72.80
15394;DHT22;7795;47.986;11.868;2024-01-30T00:38:37;2.10;72.80
15394;DHT22;7795;47.986;11.868;2024-01-30T00:41:03;2.20;72.80
15394;DHT22;7795;47.986;11.868;2024-01-30T00:43:29;2.10;72.70
15394;DHT22;7795;47.986;11.868;2024-01-30T00:45:55;2.10;72.80
15394;DHT22;7795;47.986;11.868;2024-01-30T00:48:21;2.10;72.80
15394;DHT22;7795;47.986;11.868;2024-01-30T00:50:46;2.10;72.90
15394;DHT22;7795;47.986;11.868;2024-01-30T00:53:14;2.10;72.90
15394;DHT22;7795;47.986;11.868;2024-01-30T00:55:39;2.10;72.90
15394;DHT22;7795;47.986;11.868;2024-01-30T00:58:05;2.10;72.90
15394;DHT22;7795;47.986;11.868;2024-01-30T01:00:32;2.10;72.90
15394;DHT22;7795;47.986;11.868;2024-01-30T01:02:58;2.10;72.90
15394;DHT22;7795;47.986;11.868;2024-01-30T01:05:24;2.00;73.50
15394;DHT22;7795;47.986;11.868;2024-01-30T01:07:49;2.00;72.80
15394;DHT22;7795;47.986;11.868;2024-01-30T01:10:17;2.00;72.80
15394;DHT22;7795;47.986;11.868;2024-01-30T01:12:43;2.00;72.90
15394;DHT22;7795;47.986;11.868;2024-01-30T01:15:09;2.00;72.90
15394;DHT22;7795;47.986;11.868;2024-01-30T01:17:35;1.90;72.90
15394;DHT22;7795;47.986;11.868;2024-01-30T01:20:01;2.00;73.00
15394;DHT22;7795;47.986;11.868;2024-01-30T01:22:27;1.90;73.00
15394;DHT22;7795;47.986;11.868;2024-01-30T01:24:53;1.90;73.00
15394;DHT22;7795;47.986;11.868;2024-01-30T01:27:20;1.90;73.00
15394;DHT22;7795;47.986;11.868;2024-01-30T01:29:46;1.90;73.10
15394;DHT22;7795;47.986;11.868;2024-01-30T01:32:12;1.80;73.00
15394;DHT22;7795;47.986;11.868;2024-01-30T01:34:38;1.90;73.20
15394;DHT22;7795;47.986;11.868;2024-01-30T01:37:04;1.80;73.20
15394;DHT22;7795;47.986;11.868;2024-01-30T01:39:29;1.80;73.90
15394;DHT22;7795;47.986;11.868;2024-01-30T01:41:55;1.80;73.20
15394;DHT22;7795;47.986;11.868;2024-01-30T01:44:22;1.80;73.20
15394;DHT22;7795;47.986;11.868;2024-01-30T01:46:48;1.80;73.20
15394;DHT22;7795;47.986;11.868;2024-01-30T01:49:14;1.80;73.10
15394;DHT22;7795;47.986;11.868;2024-01-30T01:51:41;1.80;73.20
15394;DHT22;7795;47.986;11.868;2024-01-30T01:54:17;1.80;73.20
15394;DHT22;7795;47.986;11.868;2024-01-30T01:56:43;1.80;73.90
15394;DHT22;7795;47.986;11.868;2024-01-30T01:59:09;1.80;74.00
15394;DHT22;7795;47.986;11.868;2024-01-30T02:01:37;1.70;73.20
15394;DHT22;7795;47.986;11.868;2024-01-30T02:04:03;1.70;73.20
15394;DHT22;7795;47.986;11.868;2024-01-30T02:06:29;1.70;73.10
15394;DHT22;7795;47.986;11.868;2024-01-30T02:08:55;1.70;73.10
15394;DHT22;7795;47.986;11.868;2024-01-30T02:11:22;1.60;73.00
15394;DHT22;7795;47.986;11.868;2024-01-30T02:13:48;1.60;73.00
15394;DHT22;7795;47.986;11.868;2024-01-30T02:16:14;1.60;73.00
15394;DHT22;7795;47.986;11.868;2024-01-30T02:18:41;1.60;73.20
15394;DHT22;7795;47.986;11.868;2024-01-30T02:21:12;1.60;73.20
15394;DHT22;7795;47.986;11.868;2024-01-30T02:23:39;1.60;73.30
15394;DHT22;7795;47.986;11.868;2024-01-30T02:26:06;1.50;73.50
15394;DHT22;7795;47.986;11.868;2024-01-30T02:28:32;1.50;73.50
15394;DHT22;7795;47.986;11.868;2024-01-30T02:30:58;1.50;73.50
15394;DHT22;7795;47.986;11.868;2024-01-30T02:33:23;1.50;73.50
15394;DHT22;7795;47.986;11.868;2024-01-30T02:35:49;1.50;73.60
15394;DHT22;7795;47.986;11.868;2024-01-30T02:38:16;1.50;73.60
15394;DHT22;7795;47.986;11.868;2024-01-30T02:40:42;1.50;73.60
15394;DHT22;7795;47.986;11.868;2024-01-30T02:43:08;1.50;73.60
15394;DHT22;7795;47.986;11.868;2024-01-30T02:45:33;1.50;73.60
15394;DHT22;7795;47.986;11.868;2024-01-30T02:47:59;1.50;73.60
15394;DHT22;7795;47.986;11.868;2024-01-30T02:50:25;1.50;73.70
15394;DHT22;7795;47.986;11.868;2024-01-30T02:52:51;1.50;73.70
15394;DHT22;7795;47.986;11.868;2024-01-30T02:55:18;1.50;73.70
15394;DHT22;7795;47.986;11.868;2024-01-30T02:57:44;1.50;73.70
15394;DHT22;7795;47.986;11.868;2024-01-30T03:00:10;1.50;73.70
15394;DHT22;7795;47.986;11.868;2024-01-30T03:02:36;1.50;73.70
15394;DHT22;7795;47.986;11.868;2024-01-30T03:05:02;1.40;73.60
15394;DHT22;7795;47.986;11.868;2024-01-30T03:07:29;1.40;73.70
15394;DHT22;7795;47.986;11.868;2024-01-30T03:09:55;1.50;73.80
15394;DHT22;7795;47.986;11.868;2024-01-30T03:12:22;1.40;73.80
15394;DHT22;7795;47.986;11.868;2024-01-30T03:14:48;1.50;73.90
15394;DHT22;7795;47.986;11.868;2024-01-30T03:17:14;1.40;73.80
15394;DHT22;7795;47.986;11.868;2024-01-30T03:19:40;1.40;73.90
15394;DHT22;7795;47.986;11.868;2024-01-30T03:22:06;1.40;73.80
15394;DHT22;7795;47.986;11.868;2024-01-30T03:24:32;1.40;73.80
15394;DHT22;7795;47.986;11.868;2024-01-30T03:26:58;1.40;73.80
15394;DHT22;7795;47.986;11.868;2024-01-30T03:29:25;1.40;73.80
15394;DHT22;7795;47.986;11.868;2024-01-30T03:31:51;1.40;73.90
15394;DHT22;7795;47.986;11.868;2024-01-30T03:34:16;1.40;73.90
15394;DHT22;7795;47.986;11.868;2024-01-30T03:36:42;1.40;73.90
15394;DHT22;7795;47.986;11.868;2024-01-30T03:39:08;1.30;73.90
15394;DHT22;7795;47.986;11.868;2024-01-30T03:41:33;1.30;73.90
15394;DHT22;7795;47.986;11.868;2024-01-30T03:43:59;1.30;73.90
15394;DHT22;7795;47.986;11.868;2024-01-30T03:46:26;1.30;73.90
15394;DHT22;7795;47.986;11.868;2024-01-30T03:48:52;1.30;73.90
15394;DHT22;7795;47.986;11.868;2024-01-30T03:51:18;1.30;73.90
15394;DHT22;7795;47.986;11.868;2024-01-30T03:53:44;1.30;74.00
15394;DHT22;7795;47.986;11.868;2024-01-30T03:56:12;1.30;73.90
15394;DHT22;7795;47.986;11.868;2024-01-30T03:58:39;1.30;73.90
15394;DHT22;7795;47.986;11.868;2024-01-30T04:01:04;1.30;73.80
15394;DHT22;7795;47.986;11.868;2024-01-30T04:03:31;1.30;73.80
15394;DHT22;7795;47.986;11.868;2024-01-30T04:05:57;1.30;73.80
15394;DHT22;7795;47.986;11.868;2024-01-30T04:08:23;1.20;73.70
15394;DHT22;7795;47.986;11.868;2024-01-30T04:10:48;1.20;73.80
15394;DHT22;7795;47.986;11.868;2024-01-30T04:13:14;1.20;73.80
15394;DHT22;7795;47.986;11.868;2024-01-30T04:15:40;1.20;74.50
15394;DHT22;7795;47.986;11.868;2024-01-30T04:18:06;1.20;73.80
15394;DHT22;7795;47.986;11.868;2024-01-30T04:20:33;1.20;73.90
15394;DHT22;7795;47.986;11.868;2024-01-30T04:22:59;1.20;74.00
15394;DHT22;7795;47.986;11.868;2024-01-30T04:25:25;1.20;74.00
15394;DHT22;7795;47.986;11.868;2024-01-30T04:27:50;1.20;73.90
15394;DHT22;7795;47.986;11.868;2024-01-30T04:30:16;1.10;73.90
15394;DHT22;7795;47.986;11.868;2024-01-30T04:32:43;1.10;73.90
15394;DHT22;7795;47.986;11.868;2024-01-30T04:35:08;1.10;73.90
15394;DHT22;7795;47.986;11.868;2024-01-30T04:37:35;1.10;73.90
15394;DHT22;7795;47.986;11.868;2024-01-30T04:40:01;1.10;74.00
15394;DHT22;7795;47.986;11.868;2024-01-30T04:42:28;1.10;74.00
15394;DHT22;7795;47.986;11.868;2024-01-30T04:44:54;1.10;74.10
15394;DHT22;7795;47.986;11.868;2024-01-30T04:47:19;1.10;74.10
15394;DHT22;7795;47.986;11.868;2024-01-30T04:49:45;1.10;74.20
15394;DHT22;7795;47.986;11.868;2024-01-30T04:52:11;1.10;74.20
15394;DHT22;7795;47.986;11.868;2024-01-30T04:54:38;1.10;74.20
15394;DHT22;7795;47.986;11.868;2024-01-30T04:57:04;1.10;74.30
15394;DHT22;7795;47.986;11.868;2024-01-30T04:59:34;1.10;74.20
15394;DHT22;7795;47.986;11.868;2024-01-30T05:01:59;1.10;74.20
15394;DHT22;7795;47.986;11.868;2024-01-30T05:04:25;1.10;74.20
15394;DHT22;7795;47.986;11.868;2024-01-30T05:06:51;1.10;74.30
15394;DHT22;7795;47.986;11.868;2024-01-30T05:09:16;1.00;74.20
15394;DHT22;7795;47.986;11.868;2024-01-30T05:11:43;1.10;74.30
15394;DHT22;7795;47.986;11.868;2024-01-30T05:14:09;1.00;74.30
15394;DHT22;7795;47.986;11.868;2024-01-30T05:16:36;1.00;74.30
15394;DHT22;7795;47.986;11.868;2024-01-30T05:19:02;1.00;74.30
15394;DHT22;7795;47.986;11.868;2024-01-30T05:21:28;1.00;74.30
15394;DHT22;7795;47.986;11.868;2024-01-30T05:23:54;1.00;74.30
15394;DHT22;7795;47.986;11.868;2024-01-30T05:26:19;1.00;74.30
15394;DHT22;7795;47.986;11.868;2024-01-30T05:28:46;1.00;74.40
15394;DHT22;7795;47.986;11.868;2024-01-30T05:31:13;1.00;74.50
15394;DHT22;7795;47.986;11.868;2024-01-30T05:33:39;1.00;74.50
15394;DHT22;7795;47.986;11.868;2024-01-30T05:36:05;1.00;74.50
15394;DHT22;7795;47.986;11.868;2024-01-30T05:38:31;1.00;74.60
15394;DHT22;7795;47.986;11.868;2024-01-30T05:40:57;1.00;74.60
15394;DHT22;7795;47.986;11.868;2024-01-30T05:43:24;1.00;74.70
15394;DHT22;7795;47.986;11.868;2024-01-30T05:45:51;1.00;74.60
15394;DHT22;7795;47.986;11.868;2024-01-30T05:48:18;1.00;74.70
15394;DHT22;7795;47.986;11.868;2024-01-30T05:50:44;1.00;74.70
15394;DHT22;7795;47.986;11.868;2024-01-30T05:53:10;1.00;74.70
15394;DHT22;7795;47.986;11.868;2024-01-30T05:55:36;1.00;74.70
15394;DHT22;7795;47.986;11.868;2024-01-30T05:58:02;1.00;74.70
15394;DHT22;7795;47.986;11.868;2024-01-30T06:00:27;1.00;74.70
15394;DHT22;7795;47.986;11.868;2024-01-30T06:02:54;1.00;74.80
15394;DHT22;7795;47.986;11.868;2024-01-30T06:05:20;1.00;74.70
15394;DHT22;7795;47.986;11.868;2024-01-30T06:07:46;1.00;74.60
15394;DHT22;7795;47.986;11.868;2024-01-30T06:10:11;1.00;74.60
15394;DHT22;7795;47.986;11.868;2024-01-30T06:12:38;1.00;74.60
15394;DHT22;7795;47.986;11.868;2024-01-30T06:15:04;1.00;74.60
15394;DHT22;7795;47.986;11.868;2024-01-30T06:17:30;1.00;74.70
15394;DHT22;7795;47.986;11.868;2024-01-30T06:19:57;1.00;74.70
15394;DHT22;7795;47.986;11.868;2024-01-30T06:22:23;1.00;74.70
15394;DHT22;7795;47.986;11.868;2024-01-30T06:24:49;1.00;74.60
15394;DHT22;7795;47.986;11.868;2024-01-30T06:27:14;1.00;74.50
15394;DHT22;7795;47.986;11.868;2024-01-30T06:29:41;1.00;74.50
15394;DHT22;7795;47.986;11.868;2024-01-30T06:32:08;1.00;74.40
15394;DHT22;7795;47.986;11.868;2024-01-30T06:34:34;0.90;74.30
15394;DHT22;7795;47.986;11.868;2024-01-30T06:37:01;0.90;74.30
15394;DHT22;7795;47.986;11.868;2024-01-30T06:39:26;0.90;74.50
15394;DHT22;7795;47.986;11.868;2024-01-30T06:41:52;0.90;74.50
15394;DHT22;7795;47.986;11.868;2024-01-30T06:44:18;0.90;74.40
15394;DHT22;7795;47.986;11.868;2024-01-30T06:46:44;0.90;74.40
15394;DHT22;7795;47.986;11.868;2024-01-30T06:49:09;0.80;74.40
15394;DHT22;7795;47.986;11.868;2024-01-30T06:51:35;0.80;74.50
15394;DHT22;7795;47.986;11.868;2024-01-30T06:54:02;0.80;74.50
15394;DHT22;7795;47.986;11.868;2024-01-30T06:56:29;0.80;74.60
15394;DHT22;7795;47.986;11.868;2024-01-30T06:58:54;0.80;74.70
15394;DHT22;7795;47.986;11.868;2024-01-30T07:01:20;0.80;74.80
15394;DHT22;7795;47.986;11.868;2024-01-30T07:03:46;0.80;74.80
15394;DHT22;7795;47.986;11.868;2024-01-30T07:06:12;0.80;74.90
15394;DHT22;7795;47.986;11.868;2024-01-30T07:08:38;0.80;75.00
15394;DHT22;7795;47.986;11.868;2024-01-30T07:11:07;0.80;75.10
15394;DHT22;7795;47.986;11.868;2024-01-30T07:13:34;0.90;75.20
15394;DHT22;7795;47.986;11.868;2024-01-30T07:16:00;0.90;75.20
15394;DHT22;7795;47.986;11.868;2024-01-30T07:18:26;0.90;75.90
15394;DHT22;7795;47.986;11.868;2024-01-30T07:20:51;0.90;75.20
15394;DHT22;7795;47.986;11.868;2024-01-30T07:23:17;0.90;75.30
15394;DHT22;7795;47.986;11.868;2024-01-30T07:25:43;1.00;75.40
15394;DHT22;7795;47.986;11.868;2024-01-30T07:28:10;1.00;75.40
15394;DHT22;7795;47.986;11.868;2024-01-30T07:30:40;1.00;75.50
15394;DHT22;7795;47.986;11.868;2024-01-30T07:33:06;1.00;75.40
15394;DHT22;7795;47.986;11.868;2024-01-30T07:35:31;1.10;75.50
15394;DHT22;7795;47.986;11.868;2024-01-30T07:37:57;1.10;75.50
15394;DHT22;7795;47.986;11.868;2024-01-30T07:40:23;1.10;75.40
15394;DHT22;7795;47.986;11.868;2024-01-30T07:42:49;1.10;75.40
15394;DHT22;7795;47.986;11.868;2024-01-30T07:45:16;1.20;76.20
15394;DHT22;7795;47.986;11.868;2024-01-30T07:47:42;1.20;75.60
15394;DHT22;7795;47.986;11.868;2024-01-30T07:50:08;1.20;75.60
15394;DHT22;7795;47.986;11.868;2024-01-30T07:52:34;1.20;75.60
15394;DHT22;7795;47.986;11.868;2024-01-30T07:55:00;1.30;75.60
15394;DHT22;7795;47.986;11.868;2024-01-30T07:57:26;1.30;75.60
15394;DHT22;7795;47.986;11.868;2024-01-30T07:59:52;1.30;75.80
15394;DHT22;7795;47.986;11.868;2024-01-30T08:02:19;1.40;75.90
15394;DHT22;7795;47.986;11.868;2024-01-30T08:04:45;1.40;76.00
15394;DHT22;7795;47.986;11.868;2024-01-30T08:07:14;1.50;76.10
15394;DHT22;7795;47.986;11.868;2024-01-30T08:09:40;1.50;76.10
15394;DHT22;7795;47.986;11.868;2024-01-30T08:12:06;1.60;76.20
15394;DHT22;7795;47.986;11.868;2024-01-30T08:14:32;1.60;76.20
15394;DHT22;7795;47.986;11.868;2024-01-30T08:16:57;1.70;76.30
15394;DHT22;7795;47.986;11.868;2024-01-30T08:19:24;1.80;76.40
15394;DHT22;7795;47.986;11.868;2024-01-30T08:21:50;1.80;76.50
15394;DHT22;7795;47.986;11.868;2024-01-30T08:24:16;1.90;77.30
15394;DHT22;7795;47.986;11.868;2024-01-30T08:26:41;2.00;76.60
15394;DHT22;7795;47.986;11.868;2024-01-30T08:29:07;2.10;76.70
15394;DHT22;7795;47.986;11.868;2024-01-30T08:31:33;2.10;76.80
15394;DHT22;7795;47.986;11.868;2024-01-30T08:33:59;2.20;76.80
15394;DHT22;7795;47.986;11.868;2024-01-30T08:36:26;2.30;76.90
15394;DHT22;7795;47.986;11.868;2024-01-30T08:38:52;2.40;76.90
15394;DHT22;7795;47.986;11.868;2024-01-30T08:41:17;2.50;76.90
15394;DHT22;7795;47.986;11.868;2024-01-30T08:43:43;2.60;76.90
15394;DHT22;7795;47.986;11.868;2024-01-30T08:46:10;2.60;76.90
15394;DHT22;7795;47.986;11.868;2024-01-30T08:48:36;2.70;76.90
15394;DHT22;7795;47.986;11.868;2024-01-30T08:51:01;2.80;76.90
15394;DHT22;7795;47.986;11.868;2024-01-30T08:53:29;2.90;77.00
15394;DHT22;7795;47.986;11.868;2024-01-30T08:55:54;3.00;77.00
15394;DHT22;7795;47.986;11.868;2024-01-30T08:58:20;3.10;76.90
15394;DHT22;7795;47.986;11.868;2024-01-30T09:00:46;3.20;76.90
15394;DHT22;7795;47.986;11.868;2024-01-30T09:03:12;3.40;76.80
15394;DHT22;7795;47.986;11.868;2024-01-30T09:05:38;3.50;76.70
15394;DHT22;7795;47.986;11.868;2024-01-30T09:08:04;3.60;76.60
15394;DHT22;7795;47.986;11.868;2024-01-30T09:10:31;3.70;76.40
15394;DHT22;7795;47.986;11.868;2024-01-30T09:12:57;3.80;76.40
15394;DHT22;7795;47.986;11.868;2024-01-30T09:15:22;3.90;76.30
15394;DHT22;7795;47.986;11.868;2024-01-30T09:17:48;4.00;76.30
15394;DHT22;7795;47.986;11.868;2024-01-30T09:20:14;4.20;76.30
15394;DHT22;7795;47.986;11.868;2024-01-30T09:22:39;4.30;76.40
15394;DHT22;7795;47.986;11.868;2024-01-30T09:25:06;4.40;76.40
15394;DHT22;7795;47.986;11.868;2024-01-30T09:27:33;4.60;76.40
15394;DHT22;7795;47.986;11.868;2024-01-30T09:29:58;4.70;76.30
15394;DHT22;7795;47.986;11.868;2024-01-30T09:32:24;4.80;76.20
15394;DHT22;7795;47.986;11.868;2024-01-30T09:34:50;4.90;76.10
15394;DHT22;7795;47.986;11.868;2024-01-30T09:37:16;5.00;76.10
15394;DHT22;7795;47.986;11.868;2024-01-30T09:39:43;5.20;76.10
15394;DHT22;7795;47.986;11.868;2024-01-30T09:42:14;5.30;75.90
15394;DHT22;7795;47.986;11.868;2024-01-30T09:44:43;5.40;75.90
15394;DHT22;7795;47.986;11.868;2024-01-30T09:47:09;5.60;75.90
15394;DHT22;7795;47.986;11.868;2024-01-30T09:49:35;5.70;75.70
15394;DHT22;7795;47.986;11.868;2024-01-30T09:52:02;5.80;75.50
15394;DHT22;7795;47.986;11.868;2024-01-30T09:54:30;5.90;75.30
15394;DHT22;7795;47.986;11.868;2024-01-30T09:56:56;6.00;75.20
15394;DHT22;7795;47.986;11.868;2024-01-30T09:59:22;6.20;75.10
15394;DHT22;7795;47.986;11.868;2024-01-30T10:01:50;6.30;75.00
15394;DHT22;7795;47.986;11.868;2024-01-30T10:04:16;6.40;74.80
15394;DHT22;7795;47.986;11.868;2024-01-30T10:06:42;6.50;74.60
15394;DHT22;7795;47.986;11.868;2024-01-30T10:09:07;6.70;74.70
15394;DHT22;7795;47.986;11.868;2024-01-30T10:11:35;6.80;74.60
15394;DHT22;7795;47.986;11.868;2024-01-30T10:14:01;6.90;74.40
15394;DHT22;7795;47.986;11.868;2024-01-30T10:16:27;7.00;74.30
15394;DHT22;7795;47.986;11.868;2024-01-30T10:18:54;7.20;74.20
15394;DHT22;7795;47.986;11.868;2024-01-30T10:21:20;7.30;74.00
15394;DHT22;7795;47.986;11.868;2024-01-30T10:23:46;7.40;73.80
15394;DHT22;7795;47.986;11.868;2024-01-30T10:26:12;7.50;73.70
15394;DHT22;7795;47.986;11.868;2024-01-30T10:28:38;7.60;73.50
15394;DHT22;7795;47.986;11.868;2024-01-30T10:31:04;7.80;73.40
15394;DHT22;7795;47.986;11.868;2024-01-30T10:33:31;7.90;73.20
15394;DHT22;7795;47.986;11.868;2024-01-30T10:36:01;8.10;73.10
15394;DHT22;7795;47.986;11.868;2024-01-30T10:38:29;8.20;73.00
15394;DHT22;7795;47.986;11.868;2024-01-30T10:40:56;8.30;72.90
15394;DHT22;7795;47.986;11.868;2024-01-30T10:43:23;8.40;72.80
15394;DHT22;7795;47.986;11.868;2024-01-30T10:45:52;8.60;72.60
15394;DHT22;7795;47.986;11.868;2024-01-30T10:48:19;8.80;72.50
15394;DHT22;7795;47.986;11.868;2024-01-30T10:50:48;8.90;72.40
15394;DHT22;7795;47.986;11.868;2024-01-30T10:53:18;9.00;72.30
15394;DHT22;7795;47.986;11.868;2024-01-30T10:55:45;9.20;72.30
15394;DHT22;7795;47.986;11.868;2024-01-30T10:58:12;9.30;72.00
15394;DHT22;7795;47.986;11.868;2024-01-30T11:00:38;9.40;71.70
15394;DHT22;7795;47.986;11.868;2024-01-30T11:03:05;9.50;71.60
15394;DHT22;7795;47.986;11.868;2024-01-30T11:05:30;9.70;71.50
15394;DHT22;7795;47.986;11.868;2024-01-30T11:07:56;9.80;71.20
15394;DHT22;7795;47.986;11.868;2024-01-30T11:10:25;9.90;71.00
15394;DHT22;7795;47.986;11.868;2024-01-30T11:12:50;10.00;70.70
15394;DHT22;7795;47.986;11.868;2024-01-30T11:15:17;10.10;70.50
15394;DHT22;7795;47.986;11.868;2024-01-30T11:17:44;10.20;70.20
15394;DHT22;7795;47.986;11.868;2024-01-30T11:20:10;10.30;70.00
15394;DHT22;7795;47.986;11.868;2024-01-30T11:22:37;10.40;69.70
15394;DHT22;7795;47.986;11.868;2024-01-30T11:25:03;10.50;69.50
15394;DHT22;7795;47.986;11.868;2024-01-30T11:27:30;10.60;69.30
15394;DHT22;7795;47.986;11.868;2024-01-30T11:30:01;10.70;69.10
15394;DHT22;7795;47.986;11.868;2024-01-30T11:32:27;10.80;68.70
15394;DHT22;7795;47.986;11.868;2024-01-30T11:34:53;10.90;68.70
15394;DHT22;7795;47.986;11.868;2024-01-30T11:37:21;11.00;68.50
15394;DHT22;7795;47.986;11.868;2024-01-30T11:39:51;11.10;68.20
15394;DHT22;7795;47.986;11.868;2024-01-30T11:42:17;11.10;68.10
15394;DHT22;7795;47.986;11.868;2024-01-30T11:44:47;11.20;67.90
15394;DHT22;7795;47.986;11.868;2024-01-30T11:47:14;11.30;67.30
15394;DHT22;7795;47.986;11.868;2024-01-30T11:49:40;11.40;67.20
15394;DHT22;7795;47.986;11.868;2024-01-30T11:52:06;11.50;67.10
15394;DHT22;7795;47.986;11.868;2024-01-30T11:54:32;11.60;66.70
15394;DHT22;7795;47.986;11.868;2024-01-30T11:56:58;11.70;66.40
15394;DHT22;7795;47.986;11.868;2024-01-30T11:59:24;11.80;66.00
15394;DHT22;7795;47.986;11.868;2024-01-30T12:01:51;11.80;65.60
15394;DHT22;7795;47.986;11.868;2024-01-30T12:04:17;11.90;65.20
15394;DHT22;7795;47.986;11.868;2024-01-30T12:06:43;12.00;65.10
15394;DHT22;7795;47.986;11.868;2024-01-30T12:09:09;12.00;64.90
15394;DHT22;7795;47.986;11.868;2024-01-30T12:11:44;12.10;64.80
15394;DHT22;7795;47.986;11.868;2024-01-30T12:14:10;12.20;64.00
15394;DHT22;7795;47.986;11.868;2024-01-30T12:16:35;12.20;64.50
15394;DHT22;7795;47.986;11.868;2024-01-30T12:19:02;12.30;64.30
15394;DHT22;7795;47.986;11.868;2024-01-30T12:21:28;12.30;64.10
15394;DHT22;7795;47.986;11.868;2024-01-30T12:23:54;12.40;64.10
15394;DHT22;7795;47.986;11.868;2024-01-30T12:26:20;12.40;63.90
15394;DHT22;7795;47.986;11.868;2024-01-30T12:28:49;12.40;63.80
15394;DHT22;7795;47.986;11.868;2024-01-30T12:31:15;12.50;63.50
15394;DHT22;7795;47.986;11.868;2024-01-30T12:33:41;12.50;63.60
15394;DHT22;7795;47.986;11.868;2024-01-30T12:36:08;12.60;63.60
15394;DHT22;7795;47.986;11.868;2024-01-30T12:38:34;12.60;63.40
15394;DHT22;7795;47.986;11.868;2024-01-30T12:41:00;12.60;63.50
15394;DHT22;7795;47.986;11.868;2024-01-30T12:43:26;12.70;63.40
15394;DHT22;7795;47.986;11.868;2024-01-30T12:45:52;12.70;63.30
15394;DHT22;7795;47.986;11.868;2024-01-30T12:48:18;12.70;63.00
15394;DHT22;7795;47.986;11.868;2024-01-30T12:50:44;12.80;62.90
15394;DHT22;7795;47.986;11.868;2024-01-30T12:53:11;12.80;62.70
15394;DHT22;7795;47.986;11.868;2024-01-30T12:55:38;12.90;62.30
15394;DHT22;7795;47.986;11.868;2024-01-30T12:58:04;12.90;62.10
15394;DHT22;7795;47.986;11.868;2024-01-30T13:00:30;12.90;61.80
15394;DHT22;7795;47.986;11.868;2024-01-30T13:02:55;13.00;61.60
15394;DHT22;7795;47.986;11.868;2024-01-30T13:05:21;13.00;61.30
15394;DHT22;7795;47.986;11.868;2024-01-30T13:07:47;13.00;61.10
15394;DHT22;7795;47.986;11.868;2024-01-30T13:10:14;13.10;61.10
15394;DHT22;7795;47.986;11.868;2024-01-30T13:12:40;13.10;60.70
15394;DHT22;7795;47.986;11.868;2024-01-30T13:15:06;13.10;60.90
15394;DHT22;7795;47.986;11.868;2024-01-30T13:17:32;13.20;60.80
15394;DHT22;7795;47.986;11.868;2024-01-30T13:19:58;13.20;60.90
15394;DHT22;7795;47.986;11.868;2024-01-30T13:22:23;13.30;61.00
15394;DHT22;7795;47.986;11.868;2024-01-30T13:24:50;13.30;60.90
15394;DHT22;7795;47.986;11.868;2024-01-30T13:27:17;13.40;60.80
15394;DHT22;7795;47.986;11.868;2024-01-30T13:29:43;13.40;60.50
15394;DHT22;7795;47.986;11.868;2024-01-30T13:32:09;13.40;60.50
15394;DHT22;7795;47.986;11.868;2024-01-30T13:34:34;13.50;60.40
15394;DHT22;7795;47.986;11.868;2024-01-30T13:37:00;13.50;60.30
15394;DHT22;7795;47.986;11.868;2024-01-30T13:39:26;13.60;60.30
15394;DHT22;7795;47.986;11.868;2024-01-30T13:41:51;13.60;60.20
15394;DHT22;7795;47.986;11.868;2024-01-30T13:44:19;13.60;60.00
15394;DHT22;7795;47.986;11.868;2024-01-30T13:46:46;13.70;59.90
15394;DHT22;7795;47.986;11.868;2024-01-30T13:49:12;13.70;60.00
15394;DHT22;7795;47.986;11.868;2024-01-30T13:51:38;13.70;59.80
15394;DHT22;7795;47.986;11.868;2024-01-30T13:54:03;13.80;60.50
15394;DHT22;7795;47.986;11.868;2024-01-30T13:56:29;13.80;59.70
15394;DHT22;7795;47.986;11.868;2024-01-30T13:58:55;13.80;60.10
15394;DHT22;7795;47.986;11.868;2024-01-30T14:01:23;13.80;59.30
15394;DHT22;7795;47.986;11.868;2024-01-30T14:03:49;13.90;59.10
15394;DHT22;7795;47.986;11.868;2024-01-30T14:06:15;13.90;59.10
15394;DHT22;7795;47.986;11.868;2024-01-30T14:08:41;14.00;59.10
15394;DHT22;7795;47.986;11.868;2024-01-30T14:11:06;14.00;59.00
15394;DHT22;7795;47.986;11.868;2024-01-30T14:13:32;14.00;58.80
15394;DHT22;7795;47.986;11.868;2024-01-30T14:15:58;14.00;58.70
15394;DHT22;7795;47.986;11.868;2024-01-30T14:18:25;14.10;58.60
15394;DHT22;7795;47.986;11.868;2024-01-30T14:20:51;14.10;58.50
15394;DHT22;7795;47.986;11.868;2024-01-30T14:23:17;14.10;58.60
15394;DHT22;7795;47.986;11.868;2024-01-30T14:25:43;14.10;58.40
15394;DHT22;7795;47.986;11.868;2024-01-30T14:28:09;14.20;58.40
15394;DHT22;7795;47.986;11.868;2024-01-30T14:30:35;14.20;58.50
15394;DHT22;7795;47.986;11.868;2024-01-30T14:33:01;14.20;58.50
15394;DHT22;7795;47.986;11.868;2024-01-30T14:35:28;14.20;58.40
15394;DHT22;7795;47.986;11.868;2024-01-30T14:37:54;14.20;58.10
15394;DHT22;7795;47.986;11.868;2024-01-30T14:40:19;14.20;58.20
15394;DHT22;7795;47.986;11.868;2024-01-30T14:42:45;14.20;58.20
15394;DHT22;7795;47.986;11.868;2024-01-30T14:45:11;14.20;58.10
15394;DHT22;7795;47.986;11.868;2024-01-30T14:47:37;14.20;58.00
15394;DHT22;7795;47.986;11.868;2024-01-30T14:50:04;14.20;57.90
15394;DHT22;7795;47.986;11.868;2024-01-30T14:52:32;14.20;57.90
15394;DHT22;7795;47.986;11.868;2024-01-30T14:54:58;14.20;57.90
15394;DHT22;7795;47.986;11.868;2024-01-30T14:57:25;14.20;58.10
15394;DHT22;7795;47.986;11.868;2024-01-30T14:59:50;14.20;58.30
15394;DHT22;7795;47.986;11.868;2024-01-30T15:02:16;14.10;58.50
15394;DHT22;7795;47.986;11.868;2024-01-30T15:04:42;14.10;58.70
15394;DHT22;7795;47.986;11.868;2024-01-30T15:07:08;14.10;58.90
15394;DHT22;7795;47.986;11.868;2024-01-30T15:09:36;14.00;58.90
15394;DHT22;7795;47.986;11.868;2024-01-30T15:12:01;14.00;58.90
15394;DHT22;7795;47.986;11.868;2024-01-30T15:14:27;13.90;58.90
15394;DHT22;7795;47.986;11.868;2024-01-30T15:16:53;13.90;59.50
15394;DHT22;7795;47.986;11.868;2024-01-30T15:19:19;13.80;58.80
15394;DHT22;7795;47.986;11.868;2024-01-30T15:21:44;13.80;58.90
15394;DHT22;7795;47.986;11.868;2024-01-30T15:24:10;13.70;59.00
15394;DHT22;7795;47.986;11.868;2024-01-30T15:26:41;13.60;59.00
15394;DHT22;7795;47.986;11.868;2024-01-30T15:29:07;13.50;59.00
15394;DHT22;7795;47.986;11.868;2024-01-30T15:31:33;13.50;59.10
15394;DHT22;7795;47.986;11.868;2024-01-30T15:33:58;13.40;59.20
15394;DHT22;7795;47.986;11.868;2024-01-30T15:36:24;13.30;59.20